HSPN

Details ICAO HSPN (PZU)
Name PORT SUDAN
Region Sudan and South Sudan
Timezone Africa/Khartoum (UTC+3.0)
Plans Departing 34
Arriving 38
Stats Elevation 135 ft / 41 m (AMSL)
Location 19.433620° 37.234079°
Runways 1
Magnetic Variation 3.474° E
Sunrise 2017-12-16 03:59:08 UTC / 2017-12-16 06:59:08 Local
Sunset 2017-12-16 14:56:56 UTC / 2017-12-16 17:56:56 Local
Advertisement - Login to hide

Runways

ID Width Length Bearing (true) Bearing (mag) Surface Threshold Offset Overrun Length
17 148 ft / 45 m 8,241 ft / 2,512 m 167.49° 164.02° Asphalt 0 ft / 0 m 200 ft / 61 m
35 148 ft / 45 m 8,241 ft / 2,512 m 347.49° 344.02° Asphalt 0 ft / 0 m 200 ft / 61 m

Map

Weather


0- 5 10 15 20 25 30 35+ Temperature / ° C

Clouds and Precipitation
Forecast for 2017-12-17 00:00 UTC. Updated an hour ago

Ground ~20,000 ft ~40,000 ft Winds

METAR

HSPN 161900Z 32009KT CAVOK 26/17 Q1014

TAF

Not found

Frequencies

Tower 118.10 MHz TWR
Approach 128.10 MHz APP
Warning: Do not use this data for real-world aviation or navigation. No guarantee of current accuracy is given.